createdAt,value
2022-11-30T00:00:04.972Z,1016.31
2022-11-30T00:01:04.943Z,1016.29
2022-11-30T00:02:05.121Z,1016.28
2022-11-30T00:03:05.145Z,1016.25
2022-11-30T00:04:04.956Z,1016.24
2022-11-30T00:05:04.963Z,1016.26
2022-11-30T00:06:04.968Z,1016.25
2022-11-30T00:07:04.965Z,1016.27
2022-11-30T00:08:04.977Z,1016.29
2022-11-30T00:09:04.973Z,1016.28
2022-11-30T00:10:04.985Z,1016.29
2022-11-30T00:11:04.978Z,1016.28
2022-11-30T00:12:04.992Z,1016.29
2022-11-30T00:13:04.986Z,1016.27
2022-11-30T00:14:05.004Z,1016.27
2022-11-30T00:15:05.003Z,1016.24
2022-11-30T00:16:05.027Z,1016.28
2022-11-30T00:17:05.040Z,1016.31
2022-11-30T00:18:05.004Z,1016.31
2022-11-30T00:19:05.014Z,1016.32
2022-11-30T00:20:05.016Z,1016.28
2022-11-30T00:21:05.024Z,1016.36
2022-11-30T00:22:05.026Z,1016.32
2022-11-30T00:23:05.021Z,1016.31
2022-11-30T00:24:05.024Z,1016.33
2022-11-30T00:25:05.036Z,1016.30
2022-11-30T00:26:05.038Z,1016.33
2022-11-30T00:27:05.053Z,1016.36
2022-11-30T00:28:05.039Z,1016.32
2022-11-30T00:29:05.044Z,1016.30
2022-11-30T00:30:05.059Z,1016.35
2022-11-30T00:31:05.145Z,1016.35
2022-11-30T00:32:05.078Z,1016.35
2022-11-30T00:33:05.060Z,1016.40
2022-11-30T00:34:05.059Z,1016.37
2022-11-30T00:35:05.072Z,1016.37
2022-11-30T00:36:05.075Z,1016.35
2022-11-30T00:37:05.071Z,1016.37
2022-11-30T00:38:05.074Z,1016.38
2022-11-30T00:39:05.093Z,1016.38
2022-11-30T00:40:05.092Z,1016.39
2022-11-30T00:41:05.087Z,1016.40
2022-11-30T00:42:05.096Z,1016.42
2022-11-30T00:43:05.093Z,1016.42
2022-11-30T00:44:05.102Z,1016.42
2022-11-30T00:45:05.109Z,1016.36
2022-11-30T00:46:05.143Z,1016.40
2022-11-30T00:47:05.107Z,1016.42
2022-11-30T00:48:05.143Z,1016.38
2022-11-30T00:49:05.113Z,1016.38
2022-11-30T00:50:05.123Z,1016.37
2022-11-30T00:51:05.129Z,1016.38
2022-11-30T00:52:05.123Z,1016.40
2022-11-30T00:53:05.134Z,1016.38
2022-11-30T00:54:05.129Z,1016.35
2022-11-30T00:55:05.137Z,1016.39
2022-11-30T00:56:05.144Z,1016.33
2022-11-30T00:57:05.182Z,1016.28
2022-11-30T00:58:05.147Z,1016.30
2022-11-30T00:59:05.155Z,1016.31
2022-11-30T01:00:05.162Z,1016.30
2022-11-30T01:01:05.262Z,1016.32
2022-11-30T01:02:05.208Z,1016.34
2022-11-30T01:03:05.169Z,1016.39
2022-11-30T01:04:05.194Z,1016.44
2022-11-30T01:05:05.168Z,1016.47
2022-11-30T01:06:05.173Z,1016.48
2022-11-30T01:07:05.179Z,1016.51
2022-11-30T01:08:05.180Z,1016.51
2022-11-30T01:09:05.189Z,1016.51
2022-11-30T01:10:05.194Z,1016.47
2022-11-30T01:11:05.196Z,1016.53
2022-11-30T01:12:05.194Z,1016.51
2022-11-30T01:13:05.198Z,1016.52
2022-11-30T01:14:05.210Z,1016.49
2022-11-30T01:15:05.203Z,1016.51
2022-11-30T01:16:05.240Z,1016.52
2022-11-30T01:17:05.210Z,1016.48
2022-11-30T01:18:05.220Z,1016.48
2022-11-30T01:19:05.220Z,1016.48
2022-11-30T01:20:05.239Z,1016.49
2022-11-30T01:21:05.231Z,1016.48
2022-11-30T01:22:10.072Z,1016.50
2022-11-30T01:23:05.229Z,1016.50
2022-11-30T01:24:05.241Z,1016.52
2022-11-30T01:25:05.317Z,1016.53
2022-11-30T01:26:05.242Z,1016.49
2022-11-30T01:27:05.251Z,1016.50
2022-11-30T01:28:05.250Z,1016.51
2022-11-30T01:29:05.258Z,1016.50
2022-11-30T01:30:05.259Z,1016.49
2022-11-30T01:31:05.397Z,1016.52
2022-11-30T01:32:05.262Z,1016.49
2022-11-30T01:33:05.271Z,1016.50
2022-11-30T01:34:05.278Z,1016.53
2022-11-30T01:35:05.270Z,1016.52
2022-11-30T01:36:05.296Z,1016.53
2022-11-30T01:37:05.284Z,1016.53
2022-11-30T01:38:05.291Z,1016.53
2022-11-30T01:39:05.284Z,1016.53
2022-11-30T01:40:05.288Z,1016.52
2022-11-30T01:41:05.292Z,1016.52
2022-11-30T01:42:05.302Z,1016.50
2022-11-30T01:43:05.314Z,1016.48
2022-11-30T01:44:05.309Z,1016.54
2022-11-30T01:45:05.308Z,1016.49
2022-11-30T01:46:05.371Z,1016.48
2022-11-30T01:47:05.314Z,1016.53
2022-11-30T01:48:05.316Z,1016.49
2022-11-30T01:49:05.327Z,1016.50
2022-11-30T01:50:05.328Z,1016.49
2022-11-30T01:51:05.330Z,1016.49
2022-11-30T01:52:05.356Z,1016.47
2022-11-30T01:53:05.333Z,1016.46
2022-11-30T01:54:05.337Z,1016.48
2022-11-30T01:55:05.342Z,1016.52
2022-11-30T01:56:05.344Z,1016.50
2022-11-30T01:57:05.355Z,1016.52
2022-11-30T01:58:05.357Z,1016.53
2022-11-30T01:59:05.362Z,1016.59
2022-11-30T02:00:05.365Z,1016.58
2022-11-30T02:01:05.407Z,1016.55
2022-11-30T02:02:05.371Z,1016.55
2022-11-30T02:03:05.366Z,1016.55
2022-11-30T02:04:05.378Z,1016.54
2022-11-30T02:05:05.380Z,1016.54
2022-11-30T02:06:05.380Z,1016.57
2022-11-30T02:07:05.520Z,1016.57
2022-11-30T02:08:05.537Z,1016.57
2022-11-30T02:09:05.385Z,1016.56
2022-11-30T02:10:05.398Z,1016.57
2022-11-30T02:11:05.400Z,1016.54
2022-11-30T02:12:05.396Z,1016.61
2022-11-30T02:13:05.406Z,1016.56
2022-11-30T02:14:05.409Z,1016.59
2022-11-30T02:15:05.408Z,1016.61
2022-11-30T02:16:05.459Z,1016.55
2022-11-30T02:17:05.427Z,1016.55
2022-11-30T02:18:05.423Z,1016.58
2022-11-30T02:19:05.428Z,1016.58
2022-11-30T02:20:05.429Z,1016.61
2022-11-30T02:21:05.427Z,1016.57
2022-11-30T02:22:05.429Z,1016.59
2022-11-30T02:23:05.434Z,1016.54
2022-11-30T02:24:05.470Z,1016.56
2022-11-30T02:25:05.441Z,1016.54
2022-11-30T02:26:05.442Z,1016.53
2022-11-30T02:27:05.455Z,1016.53
2022-11-30T02:28:05.456Z,1016.53
2022-11-30T02:29:05.462Z,1016.54
2022-11-30T02:30:05.458Z,1016.55
2022-11-30T02:31:05.480Z,1016.57
2022-11-30T02:32:05.464Z,1016.57
2022-11-30T02:33:05.466Z,1016.55
2022-11-30T02:34:05.477Z,1016.58
2022-11-30T02:35:05.472Z,1016.53
2022-11-30T02:36:05.486Z,1016.57
2022-11-30T02:37:05.486Z,1016.58
2022-11-30T02:38:05.484Z,1016.54
2022-11-30T02:39:05.494Z,1016.58
2022-11-30T02:40:05.515Z,1016.57
2022-11-30T02:41:05.498Z,1016.58
2022-11-30T02:42:05.506Z,1016.59
2022-11-30T02:43:05.500Z,1016.60
2022-11-30T02:44:05.512Z,1016.55
2022-11-30T02:45:05.513Z,1016.58
2022-11-30T02:46:05.593Z,1016.55
2022-11-30T02:47:05.519Z,1016.59
2022-11-30T02:48:05.524Z,1016.60
2022-11-30T02:49:05.522Z,1016.59
2022-11-30T02:50:05.529Z,1016.62
2022-11-30T02:51:05.536Z,1016.60
2022-11-30T02:52:05.538Z,1016.58
2022-11-30T02:53:05.541Z,1016.59
2022-11-30T02:54:05.537Z,1016.57
2022-11-30T02:55:05.543Z,1016.57
2022-11-30T02:56:05.568Z,1016.55
2022-11-30T02:57:05.549Z,1016.54
2022-11-30T02:58:05.559Z,1016.59
2022-11-30T02:59:05.556Z,1016.56
2022-11-30T03:00:05.556Z,1016.52
2022-11-30T03:01:05.600Z,1016.55
2022-11-30T03:02:05.571Z,1016.54
2022-11-30T03:03:05.611Z,1016.54
2022-11-30T03:04:05.571Z,1016.53
2022-11-30T03:05:05.582Z,1016.52
2022-11-30T03:06:05.577Z,1016.55
2022-11-30T03:07:05.588Z,1016.55
2022-11-30T03:08:05.584Z,1016.56
2022-11-30T03:09:05.594Z,1016.58
2022-11-30T03:10:05.598Z,1016.52
2022-11-30T03:11:05.600Z,1016.56
2022-11-30T03:12:05.628Z,1016.56
2022-11-30T03:13:05.606Z,1016.56
2022-11-30T03:14:05.612Z,1016.58
2022-11-30T03:15:05.612Z,1016.58
2022-11-30T03:16:05.649Z,1016.58
2022-11-30T03:17:05.619Z,1016.59
2022-11-30T03:18:05.618Z,1016.62
2022-11-30T03:19:05.620Z,1016.62
2022-11-30T03:20:05.633Z,1016.64
2022-11-30T03:21:05.632Z,1016.67
2022-11-30T03:22:05.634Z,1016.66
2022-11-30T03:23:05.636Z,1016.68
2022-11-30T03:24:05.636Z,1016.67
2022-11-30T03:25:05.644Z,1016.69
2022-11-30T03:26:05.649Z,1016.68
2022-11-30T03:27:05.647Z,1016.70
2022-11-30T03:28:05.683Z,1016.70
2022-11-30T03:29:05.656Z,1016.72
2022-11-30T03:30:05.656Z,1016.72
2022-11-30T03:31:05.757Z,1016.75
2022-11-30T03:32:05.663Z,1016.74
2022-11-30T03:33:05.675Z,1016.71
2022-11-30T03:34:05.672Z,1016.77
2022-11-30T03:35:05.682Z,1016.75
2022-11-30T03:36:05.684Z,1016.78
2022-11-30T03:37:05.688Z,1016.76
2022-11-30T03:38:05.698Z,1016.75
2022-11-30T03:39:05.689Z,1016.80
2022-11-30T03:40:05.698Z,1016.80
2022-11-30T03:41:05.707Z,1016.81
2022-11-30T03:42:05.704Z,1016.78
2022-11-30T03:43:05.705Z,1016.82
2022-11-30T03:44:05.725Z,1016.80
2022-11-30T03:45:05.711Z,1016.79
2022-11-30T03:46:05.814Z,1016.77
2022-11-30T03:47:05.722Z,1016.78
2022-11-30T03:48:05.724Z,1016.77
2022-11-30T03:49:05.719Z,1016.76
2022-11-30T03:50:05.724Z,1016.80
2022-11-30T03:51:05.728Z,1016.81
2022-11-30T03:52:05.736Z,1016.82
2022-11-30T03:53:05.740Z,1016.85
2022-11-30T03:54:05.744Z,1016.83
2022-11-30T03:55:05.745Z,1016.82
2022-11-30T03:56:05.753Z,1016.83
2022-11-30T03:57:05.752Z,1016.89
2022-11-30T03:58:05.752Z,1016.83
2022-11-30T03:59:05.754Z,1016.89
2022-11-30T04:00:05.781Z,1016.88
2022-11-30T04:01:05.768Z,1016.90
2022-11-30T04:02:05.824Z,1016.87
2022-11-30T04:03:05.821Z,1016.88
2022-11-30T04:04:05.777Z,1016.91
2022-11-30T04:05:05.775Z,1016.89
2022-11-30T04:06:05.783Z,1016.94
2022-11-30T04:07:05.782Z,1016.93
2022-11-30T04:08:05.784Z,1016.98
2022-11-30T04:09:05.794Z,1016.94
2022-11-30T04:10:08.632Z,1016.92
2022-11-30T04:11:05.794Z,1016.96
2022-11-30T04:12:05.797Z,1016.97
2022-11-30T04:13:05.800Z,1016.94
2022-11-30T04:14:05.804Z,1016.97
2022-11-30T04:15:05.813Z,1016.95
2022-11-30T04:16:05.932Z,1016.97
2022-11-30T04:17:05.820Z,1016.99
2022-11-30T04:18:05.819Z,1016.96
2022-11-30T04:19:05.828Z,1016.96
2022-11-30T04:20:05.831Z,1017.00
2022-11-30T04:21:05.825Z,1017.04
2022-11-30T04:22:05.838Z,1016.99
2022-11-30T04:23:05.832Z,1017.04
2022-11-30T04:24:05.838Z,1017.04
2022-11-30T04:25:05.846Z,1017.01
2022-11-30T04:26:05.844Z,1017.05
2022-11-30T04:27:05.853Z,1017.08
2022-11-30T04:28:05.851Z,1017.04
2022-11-30T04:29:05.851Z,1017.03
2022-11-30T04:30:05.866Z,1017.08
2022-11-30T04:31:05.940Z,1017.08
2022-11-30T04:32:05.890Z,1017.10
2022-11-30T04:33:05.867Z,1017.07
2022-11-30T04:34:05.869Z,1017.08
2022-11-30T04:35:05.882Z,1017.08
2022-11-30T04:36:05.876Z,1017.10
2022-11-30T04:37:05.882Z,1017.15
2022-11-30T04:38:05.893Z,1017.11
2022-11-30T04:39:05.892Z,1017.16
2022-11-30T04:40:05.901Z,1017.15
2022-11-30T04:41:05.901Z,1017.18
2022-11-30T04:42:05.897Z,1017.16
2022-11-30T04:43:05.908Z,1017.15
2022-11-30T04:44:05.903Z,1017.18
2022-11-30T04:45:05.907Z,1017.16
2022-11-30T04:46:05.915Z,1017.16
2022-11-30T04:47:05.925Z,1017.17
2022-11-30T04:48:05.946Z,1017.16
2022-11-30T04:49:05.918Z,1017.14
2022-11-30T04:50:05.923Z,1017.17
2022-11-30T04:51:05.954Z,1017.16
2022-11-30T04:52:05.938Z,1017.18
2022-11-30T04:53:05.932Z,1017.19
2022-11-30T04:54:05.945Z,1017.21
2022-11-30T04:55:05.942Z,1017.21
2022-11-30T04:56:05.945Z,1017.19
2022-11-30T04:57:05.952Z,1017.23
2022-11-30T04:58:05.957Z,1017.23
2022-11-30T04:59:05.962Z,1017.24
2022-11-30T05:00:05.965Z,1017.23
2022-11-30T05:01:05.973Z,1017.24
2022-11-30T05:02:06.023Z,1017.21
2022-11-30T05:03:05.975Z,1017.28
2022-11-30T05:04:06.106Z,1017.26
2022-11-30T05:05:05.974Z,1017.23
2022-11-30T05:06:05.978Z,1017.26
2022-11-30T05:07:05.979Z,1017.31
2022-11-30T05:08:05.990Z,1017.25
2022-11-30T05:09:05.994Z,1017.27
2022-11-30T05:10:05.991Z,1017.26
2022-11-30T05:11:05.992Z,1017.25
2022-11-30T05:12:06.006Z,1017.27
2022-11-30T05:13:06.002Z,1017.24
2022-11-30T05:14:06.010Z,1017.29
2022-11-30T05:15:06.015Z,1017.26
2022-11-30T05:16:06.048Z,1017.26
2022-11-30T05:17:06.013Z,1017.29
2022-11-30T05:18:06.017Z,1017.28
2022-11-30T05:19:06.019Z,1017.27
2022-11-30T05:20:06.049Z,1017.33
2022-11-30T05:21:06.024Z,1017.31
2022-11-30T05:22:06.038Z,1017.32
2022-11-30T05:23:06.041Z,1017.34
2022-11-30T05:24:06.045Z,1017.32
2022-11-30T05:25:06.050Z,1017.30
2022-11-30T05:26:06.160Z,1017.34
2022-11-30T05:27:12.692Z,1017.35
2022-11-30T05:28:06.050Z,1017.35
2022-11-30T05:29:06.058Z,1017.36
2022-11-30T05:30:06.058Z,1017.35
2022-11-30T05:31:06.163Z,1017.41
2022-11-30T05:32:06.070Z,1017.40
2022-11-30T05:33:06.068Z,1017.40
2022-11-30T05:34:06.076Z,1017.38
2022-11-30T05:35:06.083Z,1017.44
2022-11-30T05:36:10.638Z,1017.44
2022-11-30T05:37:06.081Z,1017.45
2022-11-30T05:38:06.090Z,1017.42
2022-11-30T05:39:06.100Z,1017.45
2022-11-30T05:40:06.097Z,1017.48
2022-11-30T05:41:06.104Z,1017.47
2022-11-30T05:42:06.099Z,1017.47
2022-11-30T05:43:06.114Z,1017.50
2022-11-30T05:44:06.110Z,1017.49
2022-11-30T05:45:06.111Z,1017.48
2022-11-30T05:46:06.116Z,1017.51
2022-11-30T05:47:06.214Z,1017.51
2022-11-30T05:48:06.126Z,1017.49
2022-11-30T05:49:06.123Z,1017.51
2022-11-30T05:50:06.142Z,1017.51
2022-11-30T05:51:06.134Z,1017.50
2022-11-30T05:52:06.156Z,1017.55
2022-11-30T05:53:06.136Z,1017.55
2022-11-30T05:54:06.134Z,1017.56
2022-11-30T05:55:06.137Z,1017.57
2022-11-30T05:56:06.141Z,1017.54
2022-11-30T05:57:06.149Z,1017.55
2022-11-30T05:58:06.146Z,1017.57
2022-11-30T05:59:06.151Z,1017.58
2022-11-30T06:00:06.159Z,1017.54
2022-11-30T06:01:06.157Z,1017.60
2022-11-30T06:02:06.283Z,1017.57
2022-11-30T06:03:06.290Z,1017.57
2022-11-30T06:04:08.856Z,1017.59
2022-11-30T06:05:06.170Z,1017.59
2022-11-30T06:06:06.170Z,1017.59
2022-11-30T06:07:06.184Z,1017.59
2022-11-30T06:08:06.205Z,1017.65
2022-11-30T06:09:06.189Z,1017.59
2022-11-30T06:10:06.191Z,1017.62
2022-11-30T06:11:06.196Z,1017.59
2022-11-30T06:12:06.198Z,1017.60
2022-11-30T06:13:06.194Z,1017.63
2022-11-30T06:14:06.197Z,1017.65
2022-11-30T06:15:06.212Z,1017.61
2022-11-30T06:16:06.275Z,1017.64
2022-11-30T06:17:06.215Z,1017.65
2022-11-30T06:18:06.210Z,1017.65
2022-11-30T06:19:06.213Z,1017.68
2022-11-30T06:20:06.219Z,1017.68
2022-11-30T06:21:06.227Z,1017.70
2022-11-30T06:22:06.232Z,1017.67
2022-11-30T06:23:06.230Z,1017.69
2022-11-30T06:24:06.264Z,1017.70
2022-11-30T06:25:06.233Z,1017.73
2022-11-30T06:26:06.249Z,1017.71
2022-11-30T06:27:06.247Z,1017.70
2022-11-30T06:28:06.243Z,1017.70
2022-11-30T06:29:06.247Z,1017.76
2022-11-30T06:30:06.256Z,1017.71
2022-11-30T06:31:06.260Z,1017.74
2022-11-30T06:32:06.255Z,1017.76
2022-11-30T06:33:06.257Z,1017.79
2022-11-30T06:34:06.262Z,1017.75
2022-11-30T06:35:06.272Z,1017.80
2022-11-30T06:36:06.274Z,1017.77
2022-11-30T06:37:06.279Z,1017.77
2022-11-30T06:38:06.285Z,1017.78
2022-11-30T06:39:06.276Z,1017.81
2022-11-30T06:40:07.528Z,1017.82
2022-11-30T06:41:06.288Z,1017.82
2022-11-30T06:42:06.297Z,1017.84
2022-11-30T06:43:06.298Z,1017.86
2022-11-30T06:44:06.298Z,1017.82
2022-11-30T06:45:06.303Z,1017.86
2022-11-30T06:46:06.352Z,1017.89
2022-11-30T06:47:06.311Z,1017.91
2022-11-30T06:48:06.314Z,1017.89
2022-11-30T06:49:06.313Z,1017.94
2022-11-30T06:50:06.325Z,1017.94
2022-11-30T06:51:06.339Z,1017.94
2022-11-30T06:52:06.329Z,1017.95
2022-11-30T06:53:06.324Z,1017.93
2022-11-30T06:54:06.327Z,1017.95
2022-11-30T06:55:06.381Z,1017.97
2022-11-30T06:56:09.865Z,1017.94
2022-11-30T06:57:06.342Z,1018.00
2022-11-30T06:58:06.341Z,1018.00
2022-11-30T06:59:06.342Z,1018.01
2022-11-30T07:00:06.354Z,1018.02
2022-11-30T07:01:06.382Z,1018.06
2022-11-30T07:02:09.809Z,1018.08
2022-11-30T07:03:06.355Z,1018.11
2022-11-30T07:04:06.389Z,1018.14
2022-11-30T07:05:06.361Z,1018.16
2022-11-30T07:06:06.363Z,1018.16
2022-11-30T07:07:06.368Z,1018.16
2022-11-30T07:08:06.379Z,1018.14
2022-11-30T07:09:06.383Z,1018.18
2022-11-30T07:10:06.383Z,1018.18
2022-11-30T07:11:06.390Z,1018.21
2022-11-30T07:12:06.415Z,1018.19
2022-11-30T07:13:06.395Z,1018.24
2022-11-30T07:14:06.390Z,1018.20
2022-11-30T07:15:06.400Z,1018.20
2022-11-30T07:16:06.455Z,1018.20
2022-11-30T07:17:06.404Z,1018.20
2022-11-30T07:18:06.403Z,1018.21
2022-11-30T07:19:06.414Z,1018.19
2022-11-30T07:20:06.417Z,1018.21
2022-11-30T07:21:06.414Z,1018.21
2022-11-30T07:22:06.423Z,1018.14
2022-11-30T07:23:06.429Z,1018.15
2022-11-30T07:24:06.422Z,1018.19
2022-11-30T07:25:06.432Z,1018.18
2022-11-30T07:26:06.455Z,1018.15
2022-11-30T07:27:06.453Z,1018.17
2022-11-30T07:28:06.465Z,1018.18
2022-11-30T07:29:06.437Z,1018.22
2022-11-30T07:30:06.442Z,1018.22
2022-11-30T07:31:06.444Z,1018.24
2022-11-30T07:32:06.543Z,1018.23
2022-11-30T07:33:06.450Z,1018.21
2022-11-30T07:34:06.456Z,1018.22
2022-11-30T07:35:06.464Z,1018.27
2022-11-30T07:36:06.469Z,1018.27
2022-11-30T07:37:06.463Z,1018.29
2022-11-30T07:38:09.773Z,1018.32
2022-11-30T07:39:06.471Z,1018.31
2022-11-30T07:40:06.476Z,1018.32
2022-11-30T07:41:06.485Z,1018.34
2022-11-30T07:42:06.491Z,1018.34
2022-11-30T07:43:06.489Z,1018.32
2022-11-30T07:44:06.513Z,1018.39
2022-11-30T07:45:06.492Z,1018.40
2022-11-30T07:46:06.542Z,1018.39
2022-11-30T07:47:06.507Z,1018.34
2022-11-30T07:48:06.502Z,1018.37
2022-11-30T07:49:06.505Z,1018.35
2022-11-30T07:50:06.507Z,1018.37
2022-11-30T07:51:06.512Z,1018.34
2022-11-30T07:52:06.522Z,1018.32
2022-11-30T07:53:06.526Z,1018.33
2022-11-30T07:54:06.528Z,1018.35
2022-11-30T07:55:06.535Z,1018.36
2022-11-30T07:56:06.536Z,1018.39
2022-11-30T07:57:06.536Z,1018.41
2022-11-30T07:58:06.544Z,1018.43
2022-11-30T07:59:06.538Z,1018.42
2022-11-30T08:00:06.573Z,1018.46
2022-11-30T08:01:06.668Z,1018.45
2022-11-30T08:02:06.631Z,1018.45
2022-11-30T08:03:06.558Z,1018.49
2022-11-30T08:04:06.594Z,1018.50
2022-11-30T08:05:06.582Z,1018.46
2022-11-30T08:06:06.563Z,1018.46
2022-11-30T08:07:06.566Z,1018.48
2022-11-30T08:08:06.576Z,1018.49
2022-11-30T08:09:06.570Z,1018.50
2022-11-30T08:10:06.576Z,1018.49
2022-11-30T08:11:06.578Z,1018.50
2022-11-30T08:12:06.582Z,1018.49
2022-11-30T08:13:06.584Z,1018.50
2022-11-30T08:14:06.591Z,1018.51
2022-11-30T08:15:25.047Z,1018.52
2022-11-30T08:16:06.628Z,1018.50
2022-11-30T08:17:06.639Z,1018.50
2022-11-30T08:18:06.611Z,1018.50
2022-11-30T08:19:06.616Z,1018.50
2022-11-30T08:20:06.610Z,1018.51
2022-11-30T08:21:06.620Z,1018.53
2022-11-30T08:22:06.616Z,1018.50
2022-11-30T08:23:06.621Z,1018.53
2022-11-30T08:24:06.703Z,1018.56
2022-11-30T08:25:06.631Z,1018.57
2022-11-30T08:26:06.638Z,1018.57
2022-11-30T08:27:06.635Z,1018.60
2022-11-30T08:28:06.638Z,1018.54
2022-11-30T08:29:06.651Z,1018.59
2022-11-30T08:30:06.652Z,1018.64
2022-11-30T08:31:06.678Z,1018.63
2022-11-30T08:32:06.683Z,1018.60
2022-11-30T08:33:06.655Z,1018.62
2022-11-30T08:34:06.665Z,1018.60
2022-11-30T08:35:06.661Z,1018.59
2022-11-30T08:36:06.667Z,1018.61
2022-11-30T08:37:06.676Z,1018.60
2022-11-30T08:38:06.675Z,1018.57
2022-11-30T08:39:06.681Z,1018.59
2022-11-30T08:40:06.685Z,1018.56
2022-11-30T08:41:06.679Z,1018.61
2022-11-30T08:42:06.692Z,1018.59
2022-11-30T08:43:06.687Z,1018.57
2022-11-30T08:44:06.693Z,1018.58
2022-11-30T08:45:06.698Z,1018.58
2022-11-30T08:46:27.333Z,1018.58
2022-11-30T08:47:06.748Z,1018.61
2022-11-30T08:48:06.732Z,1018.61
2022-11-30T08:49:21.034Z,1018.65
2022-11-30T08:50:06.715Z,1018.67
2022-11-30T08:51:06.725Z,1018.62
2022-11-30T08:52:22.144Z,1018.69
2022-11-30T08:53:06.731Z,1018.68
2022-11-30T08:54:06.726Z,1018.70
2022-11-30T08:55:06.734Z,1018.67
2022-11-30T08:56:06.742Z,1018.69
2022-11-30T08:57:06.746Z,1018.69
2022-11-30T08:58:06.753Z,1018.69
2022-11-30T08:59:06.750Z,1018.75
2022-11-30T09:00:06.755Z,1018.74
2022-11-30T09:01:06.758Z,1018.72
2022-11-30T09:02:06.822Z,1018.75
2022-11-30T09:03:06.863Z,1018.78
2022-11-30T09:04:06.789Z,1018.83
2022-11-30T09:05:06.768Z,1018.81
2022-11-30T09:06:06.774Z,1018.82
2022-11-30T09:07:06.773Z,1018.88
2022-11-30T09:08:06.853Z,1018.87
2022-11-30T09:09:06.777Z,1018.86
2022-11-30T09:10:06.938Z,1018.89
2022-11-30T09:11:06.792Z,1018.88
2022-11-30T09:12:06.802Z,1018.92
2022-11-30T09:13:06.799Z,1018.89
2022-11-30T09:14:06.811Z,1018.89
2022-11-30T09:15:06.798Z,1018.94
2022-11-30T09:16:06.891Z,1018.93
2022-11-30T09:17:06.805Z,1018.91
2022-11-30T09:18:06.806Z,1018.91
2022-11-30T09:19:06.810Z,1018.91
2022-11-30T09:20:06.839Z,1018.93
2022-11-30T09:21:06.832Z,1018.89
2022-11-30T09:22:06.818Z,1018.93
2022-11-30T09:23:06.825Z,1018.91
2022-11-30T09:24:06.835Z,1018.86
2022-11-30T09:25:06.836Z,1018.87
2022-11-30T09:26:06.832Z,1018.93
2022-11-30T09:27:06.835Z,1018.91
2022-11-30T09:28:12.101Z,1018.87
2022-11-30T09:29:06.840Z,1018.89
2022-11-30T09:30:06.847Z,1018.86
2022-11-30T09:31:06.896Z,1018.87
2022-11-30T09:32:06.893Z,1018.84
2022-11-30T09:33:06.867Z,1018.84
2022-11-30T09:34:06.872Z,1018.83
2022-11-30T09:35:11.412Z,1018.85
2022-11-30T09:36:06.890Z,1018.81
2022-11-30T09:37:06.874Z,1018.83
2022-11-30T09:38:06.878Z,1018.76
2022-11-30T09:39:06.874Z,1018.80
2022-11-30T09:40:06.911Z,1018.77
2022-11-30T09:41:06.889Z,1018.81
2022-11-30T09:42:06.889Z,1018.81
2022-11-30T09:43:06.898Z,1018.77
2022-11-30T09:44:06.897Z,1018.77
2022-11-30T09:45:06.904Z,1018.76
2022-11-30T09:46:06.929Z,1018.79
2022-11-30T09:47:06.912Z,1018.84
2022-11-30T09:48:06.912Z,1018.86
2022-11-30T09:49:06.909Z,1018.86
2022-11-30T09:50:06.916Z,1018.82
2022-11-30T09:51:06.915Z,1018.84
2022-11-30T09:52:06.965Z,1018.80
2022-11-30T09:53:06.924Z,1018.78
2022-11-30T09:54:06.923Z,1018.78
2022-11-30T09:55:06.930Z,1018.74
2022-11-30T09:56:06.939Z,1018.76
2022-11-30T09:57:06.935Z,1018.77
2022-11-30T09:58:06.943Z,1018.74
2022-11-30T09:59:06.941Z,1018.76
2022-11-30T10:00:06.945Z,1018.76
2022-11-30T10:01:07.624Z,1018.76
2022-11-30T10:02:07.034Z,1018.77
2022-11-30T10:03:07.106Z,1018.76
2022-11-30T10:04:06.960Z,1018.76
2022-11-30T10:05:06.960Z,1018.76
2022-11-30T10:06:06.973Z,1018.77
2022-11-30T10:07:06.969Z,1018.74
2022-11-30T10:08:07.071Z,1018.76
2022-11-30T10:09:06.983Z,1018.75
2022-11-30T10:10:30.871Z,1018.74
2022-11-30T10:11:06.988Z,1018.77
2022-11-30T10:12:06.985Z,1018.79
2022-11-30T10:13:06.987Z,1018.77
2022-11-30T10:14:07.009Z,1018.79
2022-11-30T10:15:07.001Z,1018.81
2022-11-30T10:16:07.056Z,1018.81
2022-11-30T10:17:07.026Z,1018.80
2022-11-30T10:18:07.011Z,1018.79
2022-11-30T10:19:07.016Z,1018.80
2022-11-30T10:20:07.018Z,1018.78
2022-11-30T10:28:24.331Z,1018.81
2022-11-30T10:31:32.974Z,1018.77
2022-11-30T10:32:32.910Z,1018.79
2022-11-30T10:33:38.333Z,1018.73
2022-11-30T10:34:32.913Z,1018.76
2022-11-30T10:35:32.920Z,1018.75
2022-11-30T10:36:32.915Z,1018.73
2022-11-30T10:37:32.920Z,1018.74
2022-11-30T10:38:32.928Z,1018.73
2022-11-30T10:39:32.926Z,1018.71
2022-11-30T10:40:32.929Z,1018.73
2022-11-30T10:41:32.940Z,1018.74
2022-11-30T10:42:32.935Z,1018.74
2022-11-30T10:43:32.977Z,1018.75
2022-11-30T10:44:32.956Z,1018.76
2022-11-30T10:45:32.946Z,1018.79
2022-11-30T10:46:33.004Z,1018.77
2022-11-30T10:47:32.961Z,1018.76
2022-11-30T10:48:32.962Z,1018.77
2022-11-30T10:49:32.968Z,1018.76
2022-11-30T10:50:32.963Z,1018.76
2022-11-30T10:51:32.965Z,1018.78
2022-11-30T10:52:32.981Z,1018.74
2022-11-30T10:53:32.988Z,1018.78
2022-11-30T10:54:32.985Z,1018.75
2022-11-30T10:55:32.991Z,1018.69
2022-11-30T10:56:32.987Z,1018.72
2022-11-30T10:57:32.997Z,1018.75
2022-11-30T10:58:32.991Z,1018.75
2022-11-30T10:59:33.036Z,1018.75
2022-11-30T11:00:33.006Z,1018.77
2022-11-30T11:01:33.090Z,1018.72
2022-11-30T11:02:33.056Z,1018.73
2022-11-30T11:03:33.010Z,1018.71
2022-11-30T11:04:33.098Z,1018.73
2022-11-30T11:05:33.023Z,1018.74
2022-11-30T11:06:33.112Z,1018.73
2022-11-30T11:07:33.145Z,1018.72
2022-11-30T11:08:33.029Z,1018.72
2022-11-30T11:09:33.038Z,1018.73
2022-11-30T11:10:33.043Z,1018.79
2022-11-30T11:11:33.039Z,1018.81
2022-11-30T11:12:33.045Z,1018.83
2022-11-30T11:13:33.046Z,1018.80
2022-11-30T11:14:37.734Z,1018.81
2022-11-30T11:15:33.210Z,1018.85
2022-11-30T11:16:33.058Z,1018.78
2022-11-30T11:17:33.077Z,1018.84
2022-11-30T11:18:33.073Z,1018.80
2022-11-30T11:19:33.078Z,1018.82
2022-11-30T11:20:33.073Z,1018.83
2022-11-30T11:21:33.076Z,1018.82
2022-11-30T11:22:33.081Z,1018.85
2022-11-30T11:23:33.081Z,1018.87
2022-11-30T11:24:33.095Z,1018.85
2022-11-30T11:25:33.091Z,1018.90
2022-11-30T11:26:33.096Z,1018.92
2022-11-30T11:27:33.098Z,1018.86
2022-11-30T11:28:33.100Z,1018.90
2022-11-30T11:29:33.114Z,1018.91
2022-11-30T11:30:33.107Z,1018.95
2022-11-30T11:31:33.217Z,1018.94
2022-11-30T11:32:33.121Z,1018.99
2022-11-30T11:33:33.128Z,1019.02
2022-11-30T11:34:33.129Z,1018.97
2022-11-30T11:35:33.134Z,1019.00
2022-11-30T11:36:33.129Z,1018.92
2022-11-30T11:37:33.141Z,1019.01
2022-11-30T11:38:33.136Z,1018.95
2022-11-30T11:39:33.149Z,1018.99
2022-11-30T11:40:33.151Z,1018.96
2022-11-30T11:41:33.149Z,1018.97
2022-11-30T11:42:33.153Z,1018.93
2022-11-30T11:43:33.165Z,1018.94
2022-11-30T11:44:33.158Z,1018.96
2022-11-30T11:45:33.169Z,1018.99
2022-11-30T11:46:33.333Z,1018.94
2022-11-30T11:47:33.192Z,1018.97
2022-11-30T11:48:33.239Z,1018.96
2022-11-30T11:49:33.183Z,1018.97
2022-11-30T11:51:33.187Z,1018.94
2022-11-30T11:52:33.193Z,1018.92
2022-11-30T11:53:35.135Z,1018.87
2022-11-30T11:54:33.200Z,1018.87
2022-11-30T11:55:33.202Z,1018.93
2022-11-30T11:56:33.201Z,1018.93
2022-11-30T11:57:33.203Z,1018.88
2022-11-30T11:58:33.206Z,1018.89
2022-11-30T11:59:33.215Z,1018.88
2022-11-30T12:00:33.218Z,1018.84
2022-11-30T12:01:41.312Z,1018.86
2022-11-30T12:02:33.262Z,1018.85
2022-11-30T12:03:33.255Z,1018.86
2022-11-30T12:04:33.387Z,1018.86
2022-11-30T12:05:33.237Z,1018.84
2022-11-30T12:06:33.232Z,1018.84
2022-11-30T12:07:33.290Z,1018.84
2022-11-30T12:08:33.239Z,1018.84
2022-11-30T12:09:33.246Z,1018.85
2022-11-30T12:11:33.258Z,1018.84
2022-11-30T12:12:33.263Z,1018.86
2022-11-30T12:13:33.264Z,1018.87
2022-11-30T12:14:33.268Z,1018.86
2022-11-30T12:15:33.266Z,1018.84
2022-11-30T12:16:33.388Z,1018.84